Dillon, SC

7:12 PM EDT on April 19, 2015 (GMT -0400)
Lumberton Municipal | | Change Station
CLOSE
Current Station
Airport
Location: Lumberton,
Elevation: 125 ft
Nearby Weather Stations
Active Advisory: Tornado Watch

Elev 125 ft 34.61 °N, 79.06 °W | Updated 18 minutes ago

Overcast
Overcast
71 °F
Feels Like 71 °F
N
8
Wind Variable Wind from SSE

Today
High -- | Low -- °F
--% Chance of Precip.
Yesterday
High -- | Low -- °F
Precip. -- in
6:41 AM 7:52 PM
New Moon, 2% visible
Pressure 29.83 in
Visibility 10.0 miles
Clouds Few 5500 ft
Mostly Cloudy 7000 ft
Overcast 9000 ft
Dew Point 67 °F
Humidity 87%
Rainfall 0.10 in
Snow Depth Not available.
UV 0 out of 12
Pollen 3.00 out of 12
Air Quality Not available.
Flu Activity Local Activity
METAR KLBT 192254Z AUTO 15007KT 10SM FEW055 BKN070 OVC090 22/19 A2983 RMK AO2 LTG DSNT W RAB35E51 SLP100 P0000 T02170194

More Conditions Fewer Conditions

Pressure 29.83 in
Visibility 10.0 miles
Clouds Few 5500 ft
Mostly Cloudy 7000 ft
Overcast 9000 ft
Dew Point 67 °F
Humidity 87%
Rainfall 0.10 in
Snow Depth Not available.
UV 0 out of 12
Pollen 3.00 out of 12
Air Quality Not available.
Flu Activity Local Activity
METAR KLBT 192254Z AUTO 15007KT 10SM FEW055 BKN070 OVC090 22/19 A2983 RMK AO2 LTG DSNT W RAB35E51 SLP100 P0000 T02170194

More Conditions Fewer Conditions

10-Day Weather Forecast

Almanac

Astronomy

Apr. 19, 2015 Rise Set
Actual Time
Civil Twilight
Nautical Twilight
Astronomical Twilight
Moon
Length of Visible Light
Length of Day
Tomorrow will be .
, % of the Moon is Illuminated

Today's Extremes

State Highs State Lows

Community

WunderPhotos

Upload Photos

1,815,026 photos uploaded!

WunderBlogs® & News

Nearby

Air Quality

  Air Quality AQ Index Pollutant
Not available.

Snow Depth

Station Depth Elevation

Earthquake Activity

City Distance Mag. Time & Date
Minimum magnitude displayed is 2.5.

Coastal Water Temperatures

Place Temperature

Stations

Nearby Weather Stations

Station Location Temp. Windchill Dew Point Humidity Wind Precip. Elev Updated Type
                   
Tornado Watch
Statement as of 7:03 PM EDT on April 19, 2015

Tornado Watch 82 remains in effect until 1100 PM EDT for the
following locations

SC
. South Carolina counties included are

Darlington Dillon Florence
Georgetown Horry Marion
Marlboro Williamsburg